createdAt,value
2018-09-26T00:01:23.396Z,91.45
2018-09-26T00:03:56.427Z,90.54
2018-09-26T00:06:25.903Z,90.58
2018-09-26T00:08:55.299Z,90.69
2018-09-26T00:11:24.716Z,90.88
2018-09-26T00:13:57.059Z,91.25
2018-09-26T00:16:26.473Z,91.49
2018-09-26T00:18:55.913Z,90.72
2018-09-26T00:21:25.350Z,91.21
2018-09-26T00:23:54.767Z,90.65
2018-09-26T00:26:24.163Z,90.96
2018-09-26T00:28:53.569Z,90.71
2018-09-26T00:31:23.208Z,90.69
2018-09-26T00:33:52.635Z,90.15
2018-09-26T00:36:22.080Z,90.88
2018-09-26T00:38:51.543Z,91.27
2018-09-26T00:41:21.024Z,91.11
2018-09-26T00:43:50.464Z,91.23
2018-09-26T00:46:19.900Z,91.87
2018-09-26T00:48:49.283Z,91.00
2018-09-26T00:51:18.698Z,91.65
2018-09-26T00:53:48.111Z,92.24
2018-09-26T00:56:17.499Z,93.19
2018-09-26T00:58:46.960Z,92.89
2018-09-26T01:01:16.356Z,93.03
2018-09-26T01:03:45.847Z,92.26
2018-09-26T01:06:15.251Z,93.15
2018-09-26T01:08:44.655Z,92.97
2018-09-26T01:11:14.060Z,92.33
2018-09-26T01:13:43.775Z,92.71
2018-09-26T01:16:13.172Z,92.64
2018-09-26T01:18:42.571Z,91.90
2018-09-26T01:21:11.975Z,91.68
2018-09-26T01:23:41.401Z,91.52
2018-09-26T01:26:10.791Z,91.46
2018-09-26T01:28:40.239Z,92.60
2018-09-26T01:31:09.661Z,92.55
2018-09-26T01:33:39.059Z,92.26
2018-09-26T01:36:08.460Z,92.32
2018-09-26T01:38:37.851Z,92.91
2018-09-26T01:41:07.319Z,92.67
2018-09-26T01:43:36.743Z,92.13
2018-09-26T01:46:06.167Z,92.38
2018-09-26T01:48:35.563Z,92.68
2018-09-26T01:51:04.951Z,92.85
2018-09-26T01:53:34.348Z,92.31
2018-09-26T01:56:03.764Z,92.03
2018-09-26T01:58:33.153Z,92.08
2018-09-26T02:01:02.555Z,92.37
2018-09-26T02:03:31.963Z,93.54
2018-09-26T02:06:01.357Z,92.83
2018-09-26T02:08:30.736Z,92.72
2018-09-26T02:11:00.146Z,92.86
2018-09-26T02:13:29.531Z,93.55
2018-09-26T02:15:58.907Z,93.69
2018-09-26T02:18:28.321Z,93.26
2018-09-26T02:20:57.882Z,92.55
2018-09-26T02:23:27.540Z,92.33
2018-09-26T02:25:57.123Z,92.51
2018-09-26T02:28:26.706Z,92.54
2018-09-26T02:30:56.312Z,92.95
2018-09-26T02:33:25.928Z,93.13
2018-09-26T02:35:55.545Z,93.79
2018-09-26T02:38:25.112Z,93.42
2018-09-26T02:40:54.505Z,93.22
2018-09-26T02:43:23.902Z,92.07
2018-09-26T02:45:53.303Z,92.45
2018-09-26T02:48:27.871Z,92.77
2018-09-26T02:50:57.322Z,93.25
2018-09-26T02:53:26.745Z,93.14
2018-09-26T02:55:56.148Z,92.13
2018-09-26T02:58:25.543Z,92.60
2018-09-26T03:00:54.943Z,92.87
2018-09-26T03:03:24.360Z,92.51
2018-09-26T03:05:53.755Z,92.50
2018-09-26T03:08:23.169Z,92.00
2018-09-26T03:10:52.603Z,92.61
2018-09-26T03:13:21.972Z,93.48
2018-09-26T03:15:51.439Z,93.49
2018-09-26T03:18:20.848Z,93.51
2018-09-26T03:20:50.243Z,93.21
2018-09-26T03:23:19.632Z,93.94
2018-09-26T03:25:49.037Z,93.63
2018-09-26T03:28:18.427Z,93.37
2018-09-26T03:30:47.831Z,93.55
2018-09-26T03:33:17.319Z,93.62
2018-09-26T03:35:46.723Z,93.17
2018-09-26T03:38:16.124Z,92.15
2018-09-26T03:40:45.507Z,92.04
2018-09-26T03:43:14.903Z,93.29
2018-09-26T03:45:44.300Z,94.24
2018-09-26T03:48:13.711Z,94.48
2018-09-26T03:50:43.122Z,93.86
2018-09-26T03:53:12.538Z,93.27
2018-09-26T03:55:42.015Z,93.35
2018-09-26T03:58:11.416Z,93.51
2018-09-26T04:00:40.964Z,93.62
2018-09-26T04:03:10.527Z,93.41
2018-09-26T04:05:40.135Z,93.75
2018-09-26T04:08:09.739Z,93.93
2018-09-26T04:10:39.160Z,94.16
2018-09-26T04:13:08.598Z,94.29
2018-09-26T04:15:43.218Z,94.15
2018-09-26T04:18:12.583Z,94.57
2018-09-26T04:20:41.976Z,94.28
2018-09-26T04:23:11.717Z,93.63
2018-09-26T04:25:41.127Z,93.50
2018-09-26T04:28:10.555Z,93.95
2018-09-26T04:30:40.006Z,94.22
2018-09-26T04:33:09.925Z,94.30
2018-09-26T04:35:39.176Z,94.17
2018-09-26T04:38:08.955Z,94.26
2018-09-26T04:40:38.639Z,94.62
2018-09-26T04:43:08.157Z,95.01
2018-09-26T04:45:37.523Z,94.82
2018-09-26T04:48:07.031Z,95.16
2018-09-26T04:50:36.451Z,94.87
2018-09-26T04:53:05.879Z,93.80
2018-09-26T04:55:35.256Z,93.68
2018-09-26T04:58:04.784Z,93.53
2018-09-26T05:00:34.120Z,92.98
2018-09-26T05:03:03.545Z,93.54
2018-09-26T05:05:32.927Z,93.27
2018-09-26T05:08:02.371Z,92.84
2018-09-26T05:10:31.803Z,93.15
2018-09-26T05:13:01.248Z,92.47
2018-09-26T05:15:30.596Z,92.96
2018-09-26T05:18:00.003Z,92.84
2018-09-26T05:20:29.385Z,91.84
2018-09-26T05:22:58.805Z,92.03
2018-09-26T05:25:28.196Z,93.12
2018-09-26T05:27:57.647Z,93.35
2018-09-26T05:30:27.137Z,92.67
2018-09-26T05:32:56.491Z,92.99
2018-09-26T05:35:25.883Z,93.62
2018-09-26T05:37:55.307Z,92.84
2018-09-26T05:40:24.739Z,92.63
2018-09-26T05:42:54.147Z,93.07
2018-09-26T05:45:23.536Z,93.08
2018-09-26T05:47:52.938Z,92.43
2018-09-26T05:50:22.355Z,92.84
2018-09-26T05:52:51.754Z,92.69
2018-09-26T05:55:21.210Z,92.62
2018-09-26T05:57:50.620Z,92.94
2018-09-26T06:00:20.066Z,92.90
2018-09-26T06:02:49.457Z,93.45
2018-09-26T06:05:18.879Z,92.66
2018-09-26T06:07:48.353Z,92.33
2018-09-26T06:10:17.792Z,92.32
2018-09-26T06:12:47.179Z,92.77
2018-09-26T06:15:16.599Z,93.32
2018-09-26T06:17:46.122Z,93.26
2018-09-26T06:20:15.516Z,92.60
2018-09-26T06:22:44.921Z,91.65
2018-09-26T06:25:14.311Z,91.85
2018-09-26T06:27:43.716Z,92.33
2018-09-26T06:30:13.107Z,91.71
2018-09-26T06:32:42.498Z,91.27
2018-09-26T06:35:11.943Z,91.41
2018-09-26T06:37:41.355Z,91.50
2018-09-26T06:40:10.761Z,90.26
2018-09-26T06:42:40.184Z,90.22
2018-09-26T06:45:10.331Z,89.98
2018-09-26T06:47:39.728Z,89.84
2018-09-26T06:50:09.203Z,90.46
2018-09-26T06:52:38.612Z,89.36
2018-09-26T06:55:08.084Z,89.14
2018-09-26T06:57:37.740Z,89.97
2018-09-26T07:00:08.209Z,90.18
2018-09-26T07:02:37.586Z,90.08
2018-09-26T07:05:07.020Z,89.97
2018-09-26T07:07:36.432Z,90.58
2018-09-26T07:10:06.797Z,90.85
2018-09-26T07:12:36.176Z,89.77
2018-09-26T07:15:05.940Z,89.25
2018-09-26T07:17:36.243Z,87.90
2018-09-26T07:20:05.823Z,88.91
2018-09-26T07:22:36.336Z,89.88
2018-09-26T07:25:05.780Z,89.74
2018-09-26T07:27:36.283Z,90.33
2018-09-26T07:30:05.737Z,89.72
2018-09-26T07:32:36.316Z,88.42
2018-09-26T07:35:05.724Z,87.65
2018-09-26T07:37:36.227Z,86.64
2018-09-26T07:40:06.292Z,87.25
2018-09-26T07:42:36.287Z,86.59
2018-09-26T07:45:06.109Z,85.26
2018-09-26T07:47:36.235Z,85.52
2018-09-26T07:50:05.706Z,85.89
2018-09-26T07:52:36.268Z,84.83
2018-09-26T07:55:05.829Z,85.43
2018-09-26T07:57:36.900Z,85.21
2018-09-26T08:00:07.744Z,85.72
2018-09-26T08:02:37.237Z,85.04
2018-09-26T08:05:06.868Z,84.68
2018-09-26T08:07:36.316Z,84.32
2018-09-26T08:10:05.764Z,84.10
2018-09-26T08:12:36.283Z,83.22
2018-09-26T08:15:05.995Z,82.61
2018-09-26T08:17:36.325Z,81.63
2018-09-26T08:20:05.772Z,80.71
2018-09-26T08:22:36.288Z,79.85
2018-09-26T08:25:05.763Z,78.86
2018-09-26T08:27:36.255Z,79.89
2018-09-26T08:30:05.715Z,79.14
2018-09-26T08:32:36.372Z,78.59
2018-09-26T08:35:05.860Z,79.17
2018-09-26T08:37:36.323Z,79.08
2018-09-26T08:40:05.787Z,79.24
2018-09-26T08:42:36.424Z,78.03
2018-09-26T08:45:05.887Z,76.95
2018-09-26T08:47:36.615Z,77.63
2018-09-26T08:50:07.178Z,74.94
2018-09-26T08:52:36.635Z,72.33
2018-09-26T08:55:06.047Z,71.08
2018-09-26T08:57:36.663Z,71.40
2018-09-26T09:00:06.999Z,70.25
2018-09-26T09:02:36.478Z,70.95
2018-09-26T09:05:05.964Z,67.55
2018-09-26T09:07:36.471Z,68.29
2018-09-26T09:10:05.975Z,68.41
2018-09-26T09:12:36.512Z,68.73
2018-09-26T09:15:06.048Z,67.66
2018-09-26T09:17:36.561Z,66.99
2018-09-26T09:20:06.016Z,66.57
2018-09-26T09:22:36.472Z,62.93
2018-09-26T09:25:05.911Z,62.03
2018-09-26T09:27:36.604Z,61.40
2018-09-26T09:30:06.135Z,61.33
2018-09-26T09:32:36.727Z,61.80
2018-09-26T09:35:06.132Z,61.99
2018-09-26T09:37:36.702Z,61.37
2018-09-26T09:40:06.136Z,61.83
2018-09-26T09:42:36.791Z,61.64
2018-09-26T09:45:06.265Z,60.55
2018-09-26T09:47:36.731Z,60.44
2018-09-26T09:50:06.250Z,59.22
2018-09-26T09:52:36.663Z,58.25
2018-09-26T09:55:06.108Z,57.85
2018-09-26T09:57:36.799Z,57.83
2018-09-26T10:00:06.303Z,58.31
2018-09-26T10:02:36.800Z,58.06
2018-09-26T10:05:06.204Z,57.51
2018-09-26T10:07:36.712Z,58.09
2018-09-26T10:10:06.193Z,56.90
2018-09-26T10:12:36.805Z,55.37
2018-09-26T10:15:06.236Z,54.41
2018-09-26T10:17:36.814Z,54.39
2018-09-26T10:20:06.266Z,53.59
2018-09-26T10:22:36.700Z,53.58
2018-09-26T10:25:06.265Z,52.88
2018-09-26T10:27:36.724Z,53.80
2018-09-26T10:30:06.545Z,55.66
2018-09-26T10:32:36.907Z,53.45
2018-09-26T10:35:06.587Z,53.12
2018-09-26T10:37:36.704Z,52.79
2018-09-26T10:40:06.819Z,53.02
2018-09-26T10:42:36.744Z,51.98
2018-09-26T10:45:06.221Z,54.12
2018-09-26T10:47:36.840Z,54.87
2018-09-26T10:50:06.962Z,54.16
2018-09-26T10:52:36.743Z,53.63
2018-09-26T10:55:06.428Z,53.37
2018-09-26T10:57:36.738Z,54.01
2018-09-26T11:00:06.251Z,53.12
2018-09-26T11:02:36.801Z,52.73
2018-09-26T11:05:06.536Z,52.12
2018-09-26T11:07:36.776Z,53.49
2018-09-26T11:10:06.268Z,52.53
2018-09-26T11:12:36.923Z,53.31
2018-09-26T11:15:06.606Z,53.28
2018-09-26T11:17:36.764Z,51.96
2018-09-26T11:20:06.786Z,51.19
2018-09-26T11:22:36.981Z,50.37
2018-09-26T11:25:06.451Z,49.11
2018-09-26T11:27:36.737Z,49.59
2018-09-26T11:30:06.256Z,48.50
2018-09-26T11:32:36.791Z,48.21
2018-09-26T11:35:06.247Z,49.04
2018-09-26T11:37:36.794Z,48.40
2018-09-26T11:40:06.316Z,49.16
2018-09-26T11:42:36.772Z,48.22
2018-09-26T11:45:06.984Z,47.42
2018-09-26T11:47:36.813Z,48.49
2018-09-26T11:50:06.263Z,48.78
2018-09-26T11:52:36.804Z,48.31
2018-09-26T11:55:06.231Z,48.14
2018-09-26T11:57:36.944Z,47.43
2018-09-26T12:00:06.379Z,47.77
2018-09-26T12:02:36.791Z,46.80
2018-09-26T12:05:06.236Z,46.15
2018-09-26T12:07:37.040Z,46.96
2018-09-26T12:10:06.419Z,46.02
2018-09-26T12:12:36.925Z,46.41
2018-09-26T12:15:06.342Z,45.97
2018-09-26T12:17:36.991Z,48.07
2018-09-26T12:20:06.596Z,45.56
2018-09-26T12:22:37.162Z,44.67
2018-09-26T12:25:06.567Z,45.18
2018-09-26T12:27:37.232Z,44.71
2018-09-26T12:30:08.043Z,44.12
2018-09-26T12:32:37.841Z,44.90
2018-09-26T12:35:07.516Z,46.04
2018-09-26T12:37:37.129Z,44.26
2018-09-26T12:40:07.088Z,44.31
2018-09-26T12:42:37.371Z,43.09
2018-09-26T12:45:06.791Z,44.22
2018-09-26T12:47:37.156Z,44.83
2018-09-26T12:50:06.901Z,43.04
2018-09-26T12:52:37.136Z,44.29
2018-09-26T12:55:06.863Z,45.57
2018-09-26T12:57:37.389Z,44.58
2018-09-26T13:00:06.849Z,43.00
2018-09-26T13:02:37.223Z,44.17
2018-09-26T13:05:06.731Z,43.46
2018-09-26T13:07:37.104Z,43.78
2018-09-26T13:10:06.562Z,42.17
2018-09-26T13:12:37.258Z,41.21
2018-09-26T13:15:07.252Z,40.79
2018-09-26T13:17:37.502Z,39.98
2018-09-26T13:20:07.690Z,39.96
2018-09-26T13:22:37.308Z,38.27
2018-09-26T13:25:06.760Z,40.27
2018-09-26T13:27:37.277Z,39.18
2018-09-26T13:30:06.817Z,39.46
2018-09-26T13:32:37.515Z,37.62
2018-09-26T13:35:07.209Z,38.40
2018-09-26T13:37:37.872Z,37.05
2018-09-26T13:40:07.588Z,36.65
2018-09-26T13:42:37.460Z,37.57
2018-09-26T13:45:06.931Z,38.67
2018-09-26T13:47:37.485Z,38.42
2018-09-26T13:50:06.940Z,36.31
2018-09-26T13:52:37.591Z,38.03
2018-09-26T13:55:07.019Z,38.12
2018-09-26T13:57:37.562Z,39.04
2018-09-26T14:00:07.366Z,38.95
2018-09-26T14:02:37.853Z,37.96
2018-09-26T14:05:07.380Z,37.02
2018-09-26T14:07:37.519Z,38.46
2018-09-26T14:10:07.460Z,39.57
2018-09-26T14:12:37.696Z,37.85
2018-09-26T14:15:07.649Z,38.28
2018-09-26T14:17:37.808Z,37.68
2018-09-26T14:20:07.277Z,36.45
2018-09-26T14:22:37.577Z,36.03
2018-09-26T14:25:06.999Z,36.57
2018-09-26T14:27:37.577Z,36.13
2018-09-26T14:30:07.257Z,36.78
2018-09-26T14:32:37.723Z,34.13
2018-09-26T14:35:07.269Z,34.33
2018-09-26T14:37:37.663Z,35.06
2018-09-26T14:40:07.757Z,33.94
2018-09-26T14:42:37.719Z,34.32
2018-09-26T14:45:07.154Z,35.46
2018-09-26T14:47:37.721Z,33.25
2018-09-26T14:50:08.157Z,33.00
2018-09-26T14:52:37.736Z,32.66
2018-09-26T14:55:07.246Z,32.88
2018-09-26T14:57:37.768Z,32.26
2018-09-26T15:00:08.497Z,32.09
2018-09-26T15:02:38.166Z,32.35
2018-09-26T15:05:07.604Z,31.94
2018-09-26T15:07:37.727Z,31.41
2018-09-26T15:10:08.253Z,32.33
2018-09-26T15:12:37.667Z,32.28
2018-09-26T15:15:07.230Z,30.77
2018-09-26T15:17:37.752Z,32.20
2018-09-26T15:20:07.396Z,32.59
2018-09-26T15:22:37.749Z,33.64
2018-09-26T15:25:07.259Z,33.47
2018-09-26T15:27:37.738Z,33.60
2018-09-26T15:30:07.634Z,33.69
2018-09-26T15:32:37.728Z,33.55
2018-09-26T15:35:07.177Z,34.23
2018-09-26T15:37:37.864Z,34.53
2018-09-26T15:40:07.410Z,34.82
2018-09-26T15:42:37.867Z,36.07
2018-09-26T15:45:07.535Z,36.35
2018-09-26T15:47:37.931Z,34.59
2018-09-26T15:50:07.451Z,36.49
2018-09-26T15:52:37.928Z,35.44
2018-09-26T15:55:07.428Z,36.25
2018-09-26T15:57:38.443Z,36.27
2018-09-26T16:00:08.081Z,37.05
2018-09-26T16:02:38.051Z,35.75
2018-09-26T16:05:08.019Z,35.63
2018-09-26T16:07:38.104Z,36.73
2018-09-26T16:10:08.170Z,35.32
2018-09-26T16:12:38.032Z,35.60
2018-09-26T16:15:07.624Z,34.40
2018-09-26T16:17:38.130Z,35.41
2018-09-26T16:20:07.945Z,35.87
2018-09-26T16:22:38.124Z,36.78
2018-09-26T16:25:07.631Z,36.03
2018-09-26T16:27:44.635Z,37.52
2018-09-26T16:30:14.269Z,39.90
2018-09-26T16:32:44.006Z,41.58
2018-09-26T16:35:13.579Z,41.50
2018-09-26T16:37:43.206Z,42.12
2018-09-26T16:40:12.713Z,42.79
2018-09-26T16:42:42.221Z,44.01
2018-09-26T16:45:11.694Z,44.57
2018-09-26T16:47:41.133Z,44.08
2018-09-26T16:50:10.660Z,44.95
2018-09-26T16:52:40.058Z,46.73
2018-09-26T16:55:09.652Z,48.77
2018-09-26T16:57:39.107Z,49.56
2018-09-26T17:00:08.627Z,49.32
2018-09-26T17:02:38.129Z,51.54
2018-09-26T17:05:07.588Z,53.26
2018-09-26T17:07:38.224Z,54.00
2018-09-26T17:10:07.994Z,55.24
2018-09-26T17:12:38.220Z,56.99
2018-09-26T17:15:07.667Z,56.49
2018-09-26T17:17:38.143Z,58.44
2018-09-26T17:20:07.674Z,58.90
2018-09-26T17:22:38.188Z,59.17
2018-09-26T17:25:07.649Z,60.23
2018-09-26T17:27:38.112Z,61.49
2018-09-26T17:30:07.764Z,62.17
2018-09-26T17:32:38.134Z,63.18
2018-09-26T17:35:07.584Z,63.82
2018-09-26T17:37:38.150Z,64.01
2018-09-26T17:40:09.525Z,63.52
2018-09-26T17:42:38.928Z,64.96
2018-09-26T17:45:09.187Z,65.66
2018-09-26T17:47:38.691Z,68.10
2018-09-26T17:50:08.788Z,67.52
2018-09-26T17:52:38.278Z,67.33
2018-09-26T17:55:07.750Z,67.08
2018-09-26T17:57:38.355Z,67.49
2018-09-26T18:00:08.784Z,68.50
2018-09-26T18:02:38.801Z,68.94
2018-09-26T18:05:08.304Z,67.92
2018-09-26T18:07:38.236Z,67.94
2018-09-26T18:10:08.199Z,67.85
2018-09-26T18:12:38.811Z,68.33
2018-09-26T18:15:09.302Z,69.08
2018-09-26T18:17:39.852Z,69.03
2018-09-26T18:20:11.962Z,69.55
2018-09-26T18:22:44.044Z,69.42
2018-09-26T18:25:15.949Z,69.61
2018-09-26T18:27:47.527Z,69.05
2018-09-26T18:30:19.473Z,70.89
2018-09-26T18:32:51.561Z,71.01
2018-09-26T18:35:23.817Z,71.55
2018-09-26T18:37:56.030Z,72.26
2018-09-26T18:40:28.296Z,71.51
2018-09-26T18:43:00.556Z,71.93
2018-09-26T18:45:32.800Z,71.50
2018-09-26T18:48:05.139Z,72.07
2018-09-26T18:50:37.352Z,72.54
2018-09-26T18:53:09.743Z,72.98
2018-09-26T18:55:41.874Z,72.77
2018-09-26T18:58:15.177Z,72.63
2018-09-26T19:00:47.373Z,72.78
2018-09-26T19:03:19.713Z,70.88
2018-09-26T19:05:52.015Z,69.32
2018-09-26T19:08:24.334Z,69.26
2018-09-26T19:10:56.760Z,69.01
2018-09-26T19:13:29.115Z,69.41
2018-09-26T19:16:01.390Z,72.78
2018-09-26T19:18:33.919Z,74.01
2018-09-26T19:21:06.371Z,74.00
2018-09-26T19:23:39.692Z,73.78
2018-09-26T19:26:12.011Z,74.00
2018-09-26T19:28:44.505Z,75.04
2018-09-26T19:31:16.796Z,76.13
2018-09-26T19:33:49.701Z,75.95
2018-09-26T19:36:22.092Z,76.58
2018-09-26T19:38:54.721Z,77.17
2018-09-26T19:41:27.631Z,77.82
2018-09-26T19:44:00.080Z,77.12
2018-09-26T19:46:32.458Z,77.39
2018-09-26T19:49:04.837Z,76.94
2018-09-26T19:51:37.007Z,76.74
2018-09-26T19:54:09.381Z,76.83
2018-09-26T19:56:41.738Z,77.02
2018-09-26T19:59:13.988Z,77.61
2018-09-26T20:01:46.282Z,78.07
2018-09-26T20:04:18.635Z,78.22
2018-09-26T20:06:50.994Z,78.24
2018-09-26T20:09:23.259Z,78.28
2018-09-26T20:11:55.638Z,78.45
2018-09-26T20:14:27.972Z,78.78
2018-09-26T20:17:00.167Z,79.33
2018-09-26T20:19:32.485Z,78.97
2018-09-26T20:22:04.830Z,79.50
2018-09-26T20:24:37.054Z,79.30
2018-09-26T20:27:09.068Z,80.38
2018-09-26T20:29:40.879Z,80.20
2018-09-26T20:32:10.800Z,81.17
2018-09-26T20:34:41.453Z,81.38
2018-09-26T20:37:11.552Z,81.09
2018-09-26T20:39:41.294Z,81.16
2018-09-26T20:42:11.014Z,81.83
2018-09-26T20:44:40.523Z,82.74
2018-09-26T20:47:10.136Z,81.96
2018-09-26T20:49:40.103Z,82.53
2018-09-26T20:52:09.540Z,82.32
2018-09-26T20:54:39.031Z,82.12
2018-09-26T20:57:08.535Z,81.23
2018-09-26T20:59:38.014Z,82.12
2018-09-26T21:02:07.521Z,81.64
2018-09-26T21:04:36.940Z,81.63
2018-09-26T21:07:06.608Z,81.28
2018-09-26T21:09:36.036Z,81.99
2018-09-26T21:12:05.488Z,81.80
2018-09-26T21:14:34.880Z,81.01
2018-09-26T21:17:04.289Z,81.45
2018-09-26T21:19:33.696Z,82.71
2018-09-26T21:22:03.140Z,82.42
2018-09-26T21:24:32.621Z,82.10
2018-09-26T21:27:02.016Z,82.03
2018-09-26T21:29:31.456Z,83.81
2018-09-26T21:32:00.868Z,83.77
2018-09-26T21:34:30.255Z,84.16
2018-09-26T21:36:59.652Z,83.88
2018-09-26T21:39:29.083Z,84.73
2018-09-26T21:41:58.514Z,83.85
2018-09-26T21:44:27.913Z,85.10
2018-09-26T21:46:57.412Z,83.84
2018-09-26T21:49:26.921Z,84.15
2018-09-26T21:51:56.314Z,84.02
2018-09-26T21:54:25.733Z,83.77
2018-09-26T21:56:55.123Z,83.50
2018-09-26T21:59:24.575Z,84.25
2018-09-26T22:01:53.995Z,84.89
2018-09-26T22:04:23.387Z,84.95
2018-09-26T22:06:52.856Z,84.57
2018-09-26T22:09:22.255Z,84.27
2018-09-26T22:11:51.656Z,84.85
2018-09-26T22:14:21.055Z,84.49
2018-09-26T22:16:50.459Z,84.53
2018-09-26T22:19:19.872Z,85.67
2018-09-26T22:21:49.275Z,86.14
2018-09-26T22:24:18.699Z,86.44
2018-09-26T22:26:48.107Z,86.51
2018-09-26T22:29:17.508Z,85.66
2018-09-26T22:31:47.011Z,86.08
2018-09-26T22:34:16.432Z,86.25
2018-09-26T22:36:52.124Z,85.37
2018-09-26T22:39:21.511Z,85.78
2018-09-26T22:41:50.913Z,86.03
2018-09-26T22:44:20.324Z,86.47
2018-09-26T22:46:49.716Z,86.59
2018-09-26T22:49:19.164Z,86.61
2018-09-26T22:51:48.595Z,86.10
2018-09-26T22:54:18.020Z,86.16
2018-09-26T22:56:47.403Z,86.58
2018-09-26T22:59:16.819Z,86.52
2018-09-26T23:01:46.249Z,86.71
2018-09-26T23:04:15.648Z,87.09
2018-09-26T23:06:45.055Z,87.19
2018-09-26T23:09:14.452Z,87.27
2018-09-26T23:11:43.859Z,86.57
2018-09-26T23:14:13.337Z,87.42
2018-09-26T23:16:42.781Z,87.78
2018-09-26T23:19:12.177Z,87.98
2018-09-26T23:21:41.587Z,87.57
2018-09-26T23:24:10.992Z,88.34
2018-09-26T23:26:46.885Z,87.50
2018-09-26T23:29:16.276Z,87.11
2018-09-26T23:31:45.720Z,87.11
2018-09-26T23:34:15.146Z,87.97
2018-09-26T23:36:44.550Z,87.79
2018-09-26T23:39:13.935Z,87.19
2018-09-26T23:41:43.363Z,87.52
2018-09-26T23:44:12.751Z,87.68
2018-09-26T23:46:42.143Z,87.33
2018-09-26T23:49:11.552Z,87.25
2018-09-26T23:51:40.975Z,87.01
2018-09-26T23:54:10.471Z,86.52
2018-09-26T23:56:39.871Z,86.33
2018-09-26T23:59:09.400Z,87.25
